High Springs, Florida
Current Conditions -  °F | °C
As of 7:53 PM on Saturday 25 Oct 2014 (Local Time) from KGNV Reporting Station
Clear Clear  
Wind Chill: 15°   Ceiling: Unl
Heat Index: 15°   Visibility: 10mi
Dew Point: 12°   Wind: 0mph
Humidity: 81%   Direction: NA
Pressure: 29.99"   Gusts: NA
Location:  29.82°N, 82.59°W
Report Text: KGNV 252353Z 00000KT 10SM CLR 15/12 A2999 RMK AO2 SLP156 T01500117 10256 20150 53009
Loading
Personal Weather Stations






























Interactive Weather Map
Tropical Storm Tracking
New forecast layout! Learn more

10-Day Weather Forecast

Advertisements
Track Severe Weather on mobile